createdAt,value
2023-01-25T00:02:03.715Z,24.00
2023-01-25T00:06:12.328Z,30.33
2023-01-25T00:10:21.273Z,29.53
2023-01-25T00:14:29.900Z,37.50
2023-01-25T00:18:38.462Z,24.90
2023-01-25T00:22:47.015Z,39.90
2023-01-25T00:26:55.606Z,33.40
2023-01-25T00:31:05.992Z,29.07
2023-01-25T00:35:14.549Z,31.37
2023-01-25T00:39:23.588Z,28.03
2023-01-25T00:43:33.413Z,23.67
2023-01-25T00:47:54.458Z,42.90
2023-01-25T00:52:03.124Z,34.30
2023-01-25T00:56:11.779Z,29.90
2023-01-25T01:00:20.507Z,26.17
2023-01-25T01:04:29.193Z,30.00
2023-01-25T01:08:40.379Z,23.80
2023-01-25T01:12:49.360Z,28.30
2023-01-25T01:17:17.343Z,31.57
2023-01-25T01:21:25.974Z,26.10
2023-01-25T01:25:34.599Z,25.87
2023-01-25T01:30:02.552Z,24.30
2023-01-25T01:34:14.595Z,24.23
2023-01-25T01:38:43.021Z,25.63
2023-01-25T01:42:59.388Z,30.33
2023-01-25T01:47:11.019Z,28.00
2023-01-25T01:51:37.597Z,20.20
2023-01-25T01:55:46.169Z,27.70
2023-01-25T02:00:00.532Z,26.40
2023-01-25T02:04:10.200Z,25.40
2023-01-25T02:08:19.332Z,30.63
2023-01-25T02:12:28.510Z,29.03
2023-01-25T02:16:37.136Z,22.20
2023-01-25T02:20:48.341Z,29.63
2023-01-25T02:25:06.125Z,23.07
2023-01-25T02:29:16.299Z,35.17
2023-01-25T02:33:27.215Z,22.73
2023-01-25T02:37:36.214Z,27.07
2023-01-25T02:41:47.991Z,27.50
2023-01-25T02:45:59.811Z,25.77
2023-01-25T02:50:09.611Z,25.27
2023-01-25T02:54:20.821Z,23.47
2023-01-25T02:58:29.598Z,21.17
2023-01-25T03:02:38.392Z,20.17
2023-01-25T03:06:47.171Z,24.83
2023-01-25T03:11:00.218Z,24.23
2023-01-25T03:15:10.129Z,23.93
2023-01-25T03:19:18.829Z,22.87
2023-01-25T03:23:27.411Z,25.10
2023-01-25T03:27:56.315Z,21.50
2023-01-25T03:32:05.380Z,27.70
2023-01-25T03:36:14.114Z,22.50
2023-01-25T03:40:22.713Z,30.07
2023-01-25T03:44:50.695Z,17.87
2023-01-25T03:49:11.309Z,26.93
2023-01-25T03:53:22.226Z,25.87
2023-01-25T03:57:30.795Z,26.60
2023-01-25T04:01:39.690Z,27.07
2023-01-25T04:05:48.437Z,24.13
2023-01-25T04:09:57.017Z,30.27
2023-01-25T04:14:42.479Z,30.90
2023-01-25T04:18:35.363Z,26.33
2023-01-25T04:22:49.935Z,23.63
2023-01-25T04:26:58.571Z,31.20
2023-01-25T04:31:08.050Z,28.73
2023-01-25T04:35:19.952Z,33.37
2023-01-25T04:39:28.641Z,27.27
2023-01-25T04:43:37.369Z,27.47
2023-01-25T04:47:58.780Z,28.20
2023-01-25T04:52:07.436Z,30.97
2023-01-25T04:56:16.057Z,33.90
2023-01-25T05:00:28.882Z,28.27
2023-01-25T05:04:37.509Z,30.90
2023-01-25T05:08:46.140Z,42.87
2023-01-25T05:12:54.716Z,33.00
2023-01-25T05:17:03.330Z,41.17
2023-01-25T05:21:13.667Z,35.67
2023-01-25T05:25:39.787Z,42.80
2023-01-25T05:30:08.301Z,43.70
2023-01-25T05:34:16.928Z,41.73
2023-01-25T05:38:25.864Z,28.40
2023-01-25T05:42:34.508Z,38.47
2023-01-25T05:46:43.359Z,29.40
2023-01-25T05:50:51.923Z,32.67
2023-01-25T05:55:00.488Z,28.47
2023-01-25T05:59:10.748Z,29.57
2023-01-25T06:03:19.380Z,29.87
2023-01-25T06:07:28.105Z,29.90
2023-01-25T06:11:36.632Z,26.13
2023-01-25T06:15:46.939Z,33.77
2023-01-25T06:19:55.526Z,27.93
2023-01-25T06:24:05.374Z,28.90
2023-01-25T06:28:14.013Z,26.60
2023-01-25T06:32:24.170Z,26.37
2023-01-25T06:36:33.118Z,27.97
2023-01-25T06:40:41.747Z,27.50
2023-01-25T06:44:50.370Z,29.63
2023-01-25T06:48:59.007Z,31.77
2023-01-25T06:53:19.801Z,30.60
2023-01-25T06:57:40.483Z,36.47
2023-01-25T07:01:50.147Z,23.23
2023-01-25T07:06:02.287Z,28.57
2023-01-25T07:10:31.865Z,32.97
2023-01-25T07:14:40.538Z,28.63
2023-01-25T07:18:49.638Z,31.27
2023-01-25T07:23:02.054Z,28.53
2023-01-25T07:27:29.667Z,32.63
2023-01-25T07:31:38.264Z,33.87
2023-01-25T07:35:46.797Z,28.70
2023-01-25T07:39:57.003Z,25.27
2023-01-25T07:44:05.728Z,30.50
2023-01-25T07:48:14.286Z,26.57
2023-01-25T07:52:22.844Z,29.07
2023-01-25T07:56:37.842Z,33.50
2023-01-25T08:00:46.482Z,29.77
2023-01-25T08:04:55.261Z,28.23
2023-01-25T08:09:07.013Z,33.50
2023-01-25T08:13:35.199Z,26.07
2023-01-25T08:17:43.832Z,21.63
2023-01-25T08:21:52.832Z,29.30
2023-01-25T08:26:05.926Z,21.50
2023-01-25T08:30:14.752Z,36.40
2023-01-25T08:34:23.382Z,29.13
2023-01-25T08:38:32.551Z,30.80
2023-01-25T08:43:00.456Z,32.07
2023-01-25T08:47:09.025Z,32.23
2023-01-25T08:51:18.479Z,31.50
2023-01-25T08:55:27.106Z,34.90
2023-01-25T08:59:35.736Z,28.97
2023-01-25T09:03:46.412Z,33.03
2023-01-25T09:07:55.044Z,29.97
2023-01-25T09:12:03.668Z,28.40
2023-01-25T09:16:31.616Z,33.63
2023-01-25T09:20:40.903Z,30.80
2023-01-25T09:24:52.313Z,26.40
2023-01-25T09:29:01.275Z,32.03
2023-01-25T09:33:09.857Z,24.17
2023-01-25T09:37:18.397Z,30.70
2023-01-25T09:41:44.809Z,25.13
2023-01-25T09:45:53.456Z,26.43
2023-01-25T09:50:14.267Z,36.13
2023-01-25T09:54:42.314Z,33.60
2023-01-25T09:58:50.982Z,27.10
2023-01-25T10:03:37.839Z,27.20
2023-01-25T10:08:04.354Z,32.23
2023-01-25T10:12:18.440Z,31.70
2023-01-25T10:16:31.959Z,36.20
2023-01-25T10:20:55.754Z,32.60
2023-01-25T10:25:23.935Z,29.60
2023-01-25T10:29:53.648Z,26.87
2023-01-25T10:34:04.962Z,30.90
2023-01-25T10:38:34.458Z,24.70
2023-01-25T10:42:48.717Z,35.67
2023-01-25T10:47:07.412Z,29.30
2023-01-25T10:51:35.470Z,40.67
2023-01-25T10:55:47.270Z,34.70
2023-01-25T10:59:56.438Z,28.67
2023-01-25T11:04:26.951Z,40.90
2023-01-25T11:08:54.939Z,30.07
2023-01-25T11:13:19.544Z,35.53
2023-01-25T11:17:32.717Z,40.97
2023-01-25T11:21:44.482Z,29.07
2023-01-25T11:26:13.996Z,38.00
2023-01-25T11:30:22.826Z,37.23
2023-01-25T11:34:51.636Z,33.37
2023-01-25T11:39:22.693Z,38.30
2023-01-25T11:43:38.377Z,39.53
2023-01-25T11:48:02.161Z,34.03
2023-01-25T11:52:29.121Z,25.10
2023-01-25T11:57:19.527Z,31.60
2023-01-25T12:02:01.947Z,35.00
2023-01-25T12:06:30.134Z,37.43
2023-01-25T12:10:44.926Z,38.50
2023-01-25T12:15:20.467Z,29.40
2023-01-25T12:19:39.030Z,35.13
2023-01-25T12:23:56.845Z,39.50
2023-01-25T12:28:14.819Z,31.05
2023-01-25T12:32:26.726Z,40.20
2023-01-25T12:36:47.367Z,38.63
2023-01-25T12:41:03.135Z,35.80
2023-01-25T12:45:24.505Z,40.37
2023-01-25T12:49:44.968Z,30.53
2023-01-25T12:53:54.517Z,31.30
2023-01-25T12:58:14.953Z,29.20
2023-01-25T13:02:44.952Z,32.13
2023-01-25T13:07:02.607Z,43.57
2023-01-25T13:11:14.273Z,39.23
2023-01-25T13:15:46.372Z,38.33
2023-01-25T13:19:55.343Z,28.57
2023-01-25T13:24:22.400Z,31.60
2023-01-25T13:28:46.702Z,33.10
2023-01-25T13:32:58.531Z,33.60
2023-01-25T13:37:30.956Z,29.90
2023-01-25T13:41:42.654Z,34.43
2023-01-25T13:45:53.628Z,35.83
2023-01-25T13:50:05.345Z,39.60
2023-01-25T13:54:16.220Z,40.10
2023-01-25T13:58:30.807Z,32.87
2023-01-25T14:02:42.494Z,31.30
2023-01-25T14:06:52.652Z,30.07
2023-01-25T14:11:01.384Z,43.07
2023-01-25T14:15:25.184Z,32.47
2023-01-25T14:19:35.441Z,45.80
2023-01-25T14:23:44.273Z,41.93
2023-01-25T14:27:58.219Z,43.53
2023-01-25T14:32:07.164Z,36.10
2023-01-25T14:36:24.866Z,36.87
2023-01-25T14:40:28.036Z,46.10
2023-01-25T14:44:36.939Z,35.77
2023-01-25T14:48:45.566Z,37.03
2023-01-25T14:52:54.140Z,41.57
2023-01-25T14:57:05.842Z,37.37
2023-01-25T15:01:17.539Z,32.00
2023-01-25T15:05:31.458Z,34.63
2023-01-25T15:09:45.389Z,33.40
2023-01-25T15:14:02.131Z,33.17
2023-01-25T15:18:13.715Z,33.80
2023-01-25T15:22:23.167Z,36.53
2023-01-25T15:26:33.966Z,33.17
2023-01-25T15:30:42.648Z,36.07
2023-01-25T15:34:52.059Z,32.97
2023-01-25T15:39:00.966Z,30.33
2023-01-25T15:43:28.916Z,31.73
2023-01-25T15:47:58.599Z,42.07
2023-01-25T15:52:07.189Z,28.27
2023-01-25T15:56:27.879Z,38.13
2023-01-25T16:00:36.628Z,34.97
2023-01-25T16:04:45.182Z,45.90
2023-01-25T16:08:53.927Z,42.50
2023-01-25T16:13:02.564Z,46.70
2023-01-25T16:17:19.881Z,35.43
2023-01-25T16:21:28.521Z,35.30
2023-01-25T16:25:37.097Z,42.83
2023-01-25T16:29:45.738Z,36.43
2023-01-25T16:33:54.362Z,32.17
2023-01-25T16:38:02.990Z,38.67
2023-01-25T16:42:11.724Z,46.63
2023-01-25T16:46:23.261Z,32.37
2023-01-25T16:50:31.951Z,40.17
2023-01-25T16:54:40.427Z,43.17
2023-01-25T16:58:50.238Z,49.77
2023-01-25T17:02:59.987Z,41.37
2023-01-25T17:07:10.512Z,47.27
2023-01-25T17:11:19.913Z,50.70
2023-01-25T17:15:28.675Z,48.23
2023-01-25T17:19:37.282Z,51.93
2023-01-25T17:23:46.041Z,53.73
2023-01-25T17:28:14.079Z,65.03
2023-01-25T17:32:23.936Z,46.37
2023-01-25T17:36:32.661Z,69.80
2023-01-25T17:40:41.510Z,50.43
2023-01-25T17:44:50.027Z,51.03
2023-01-25T17:49:19.453Z,61.20
2023-01-25T17:53:28.074Z,63.27
2023-01-25T17:57:56.361Z,60.83
2023-01-25T18:02:06.389Z,40.03
2023-01-25T18:06:17.375Z,48.93
2023-01-25T18:10:25.930Z,51.20
2023-01-25T18:14:35.035Z,49.97
2023-01-25T18:18:44.928Z,61.53
2023-01-25T18:22:55.024Z,53.57
2023-01-25T18:27:18.470Z,43.80
2023-01-25T18:31:27.515Z,43.60
2023-01-25T18:35:36.249Z,59.07
2023-01-25T18:39:46.390Z,46.93
2023-01-25T18:43:56.622Z,51.83
2023-01-25T18:48:06.768Z,52.87
2023-01-25T18:52:16.633Z,41.67
2023-01-25T18:56:27.078Z,46.37
2023-01-25T19:00:36.411Z,46.50
2023-01-25T19:04:45.689Z,46.80
2023-01-25T19:09:13.738Z,55.50
2023-01-25T19:13:22.290Z,50.37
2023-01-25T19:17:32.225Z,56.67
2023-01-25T19:21:41.261Z,49.17
2023-01-25T19:25:54.747Z,59.13
2023-01-25T19:30:03.310Z,70.50
2023-01-25T19:34:11.964Z,53.20
2023-01-25T19:38:20.587Z,46.97
2023-01-25T19:42:29.115Z,66.80
2023-01-25T19:46:38.293Z,62.47
2023-01-25T19:50:46.883Z,55.90
2023-01-25T19:54:55.455Z,45.93
2023-01-25T19:59:05.950Z,67.97
2023-01-25T20:03:16.615Z,45.50
2023-01-25T20:07:26.425Z,57.93
2023-01-25T20:11:35.352Z,50.90
2023-01-25T20:15:48.488Z,48.53
2023-01-25T20:19:57.216Z,53.33
2023-01-25T20:24:06.843Z,56.67
2023-01-25T20:28:15.396Z,37.47
2023-01-25T20:32:32.738Z,55.80
2023-01-25T20:36:35.419Z,46.70
2023-01-25T20:40:44.049Z,52.63
2023-01-25T20:44:52.679Z,49.10
2023-01-25T20:49:02.186Z,51.43
2023-01-25T20:53:10.752Z,35.83
2023-01-25T20:57:19.293Z,55.50
2023-01-25T21:01:50.411Z,50.30
2023-01-25T21:06:00.821Z,52.90
2023-01-25T21:10:10.698Z,39.90
2023-01-25T21:14:20.315Z,52.57
2023-01-25T21:18:38.016Z,46.27
2023-01-25T21:23:06.144Z,41.53
2023-01-25T21:27:14.702Z,36.57
2023-01-25T21:31:26.306Z,43.80
2023-01-25T21:35:35.017Z,47.33
2023-01-25T21:39:43.626Z,46.53
2023-01-25T21:44:12.465Z,52.40
2023-01-25T21:48:22.629Z,57.33
2023-01-25T21:52:31.221Z,49.73
2023-01-25T21:56:39.848Z,56.00
2023-01-25T22:00:48.478Z,46.40
2023-01-25T22:04:57.115Z,61.53
2023-01-25T22:09:05.777Z,45.50
2023-01-25T22:13:14.466Z,54.83
2023-01-25T22:17:24.733Z,57.03
2023-01-25T22:21:33.875Z,53.10
2023-01-25T22:25:42.502Z,47.80
2023-01-25T22:29:51.130Z,52.50
2023-01-25T22:34:00.691Z,56.93
2023-01-25T22:38:28.665Z,47.93
2023-01-25T22:42:37.309Z,62.80
2023-01-25T22:47:05.275Z,51.77
2023-01-25T22:51:16.632Z,54.50
2023-01-25T22:55:25.300Z,49.40
2023-01-25T22:59:53.287Z,54.60
2023-01-25T23:04:02.729Z,57.40
2023-01-25T23:08:11.297Z,51.03
2023-01-25T23:12:39.353Z,47.20
2023-01-25T23:16:48.670Z,51.87
2023-01-25T23:20:57.313Z,58.07
2023-01-25T23:25:06.677Z,51.53
2023-01-25T23:29:15.527Z,48.10
2023-01-25T23:33:43.882Z,44.27
2023-01-25T23:37:52.511Z,57.20
2023-01-25T23:42:01.077Z,57.37
2023-01-25T23:46:10.016Z,52.47
2023-01-25T23:50:18.824Z,47.10
2023-01-25T23:54:27.463Z,53.80
2023-01-25T23:58:37.953Z,55.80
